Time;durP1;ratioP1;P1;durP2;ratioP2;P2;SDS_P1;SDS_P2;PMS_P1;PMS_P2;Temp;Humidity;BMP_temperature;BMP_pressure;BME280_temperature;BME280_humidity;BME280_pressure;Samples;Min_cycle;Max_cycle;Signal;HPM_P1;HPM_P2
2023/01/01 00:02:12;;;;;;;94.00;76.10;;;;;;;11.10;100.00;100142.00;5003299;28;20252;-65
2023/01/01 00:04:38;;;;;;;79.20;63.70;;;;;;;11.16;100.00;100137.41;5033116;28;20680;-65
2023/01/01 00:07:03;;;;;;;62.83;48.40;;;;;;;11.04;100.00;100136.34;5030959;28;20176;-66
2023/01/01 00:12:12;;;;;;;52.50;42.27;;;;;;;11.00;100.00;100134.84;5033406;28;20232;-61
2023/01/01 00:14:38;;;;;;;56.60;45.67;;;;;;;10.84;100.00;100130.56;5012580;28;20194;-69
2023/01/01 00:17:04;;;;;;;45.37;37.20;;;;;;;11.00;100.00;100129.72;5025975;28;20270;-62
2023/01/01 00:19:29;;;;;;;41.63;33.73;;;;;;;11.01;100.00;100134.75;5014572;28;20622;-62
2023/01/01 00:21:54;;;;;;;30.70;26.70;;;;;;;11.00;100.00;100130.53;5020475;28;21015;-62
2023/01/01 00:24:20;;;;;;;32.70;26.40;;;;;;;10.96;100.00;100139.34;5015431;28;20222;-61
2023/01/01 00:26:45;;;;;;;46.07;33.97;;;;;;;10.69;100.00;100132.22;5014307;28;20183;-62
2023/01/01 00:29:10;;;;;;;43.67;33.67;;;;;;;10.68;100.00;100130.59;5014535;28;20584;-64
2023/01/01 00:31:36;;;;;;;63.97;43.13;;;;;;;10.58;100.00;100137.13;5019962;28;20230;-63
2023/01/01 00:34:01;;;;;;;74.13;48.70;;;;;;;10.54;100.00;100139.03;5024586;28;20192;-62
2023/01/01 00:36:28;;;;;;;41.07;31.70;;;;;;;10.49;100.00;100135.88;5013822;28;20174;-62
2023/01/01 00:38:57;;;;;;;37.50;30.63;;;;;;;10.51;100.00;100135.81;5022424;28;20236;-65
2023/01/01 00:41:23;;;;;;;37.63;29.23;;;;;;;10.38;100.00;100133.03;5016338;28;20222;-62
2023/01/01 00:43:48;;;;;;;49.30;38.07;;;;;;;10.16;100.00;100140.13;5020382;28;20713;-62
2023/01/01 00:46:14;;;;;;;36.80;29.67;;;;;;;10.14;100.00;100130.84;5002357;28;20190;-62
2023/01/01 00:48:39;;;;;;;32.87;26.33;;;;;;;10.14;100.00;100128.25;4998215;28;20630;-62
2023/01/01 00:51:05;;;;;;;31.67;25.97;;;;;;;10.20;100.00;100130.50;5016659;28;20218;-63
2023/01/01 00:53:30;;;;;;;35.70;27.20;;;;;;;10.20;100.00;100124.56;5023347;28;20306;-64
2023/01/01 00:55:56;;;;;;;26.70;21.87;;;;;;;10.28;100.00;100124.97;5021925;28;20193;-66
2023/01/01 00:58:24;;;;;;;28.43;21.37;;;;;;;10.26;100.00;100125.03;5005588;28;20186;-63
2023/01/01 01:00:51;;;;;;;23.03;17.57;;;;;;;10.38;100.00;100120.19;5018379;28;20293;-63
2023/01/01 01:03:28;;;;;;;15.93;13.33;;;;;;;10.44;100.00;100125.00;5036370;28;20661;-63
2023/01/01 01:06:02;;;;;;;16.07;11.43;;;;;;;10.50;100.00;100124.69;5014614;28;20508;-63
2023/01/01 01:08:30;;;;;;;13.97;10.90;;;;;;;10.52;100.00;100112.56;5014355;28;20182;-63
2023/01/01 01:11:21;;;;;;;14.47;11.80;;;;;;;10.48;100.00;100108.50;5007030;28;20268;-63
2023/01/01 01:13:48;;;;;;;11.87;10.10;;;;;;;10.56;100.00;100108.09;5023445;28;20177;-63
2023/01/01 01:16:17;;;;;;;13.90;10.10;;;;;;;10.59;100.00;100115.63;5011057;28;20274;-64
2023/01/01 01:18:43;;;;;;;13.73;9.10;;;;;;;10.54;100.00;100118.44;5015232;28;20183;-61
2023/01/01 01:21:15;;;;;;;9.07;8.13;;;;;;;10.52;100.00;100117.72;5013508;28;20708;-64
2023/01/01 01:23:45;;;;;;;9.93;8.80;;;;;;;10.50;100.00;100111.81;5016966;28;20277;-65
2023/01/01 01:26:15;;;;;;;11.73;7.93;;;;;;;10.47;100.00;100120.53;5014228;28;20213;-64
2023/01/01 01:28:42;;;;;;;10.27;8.30;;;;;;;10.64;100.00;100111.06;5021158;28;20190;-66
2023/01/01 01:31:08;;;;;;;9.33;8.27;;;;;;;10.70;100.00;100108.16;5019063;28;20656;-65
2023/01/01 01:33:34;;;;;;;10.70;8.07;;;;;;;10.57;100.00;100105.44;5004490;28;20182;-65
2023/01/01 01:36:01;;;;;;;10.03;7.43;;;;;;;10.69;100.00;100103.91;5019775;28;20202;-62
2023/01/01 01:38:26;;;;;;;9.37;7.10;;;;;;;10.75;100.00;100105.34;5000605;28;20194;-64
2023/01/01 01:40:51;;;;;;;9.33;8.33;;;;;;;10.74;100.00;100109.66;5011697;28;20232;-63
2023/01/01 01:43:32;;;;;;;9.27;8.33;;;;;;;10.60;100.00;100109.56;5022843;28;20206;-62
2023/01/01 01:46:12;;;;;;;11.43;8.87;;;;;;;10.60;100.00;100112.16;5026340;28;20593;-64
2023/01/01 01:48:41;;;;;;;11.60;9.03;;;;;;;10.79;100.00;100115.38;5023705;28;20181;-63
2023/01/01 01:51:08;;;;;;;12.67;9.17;;;;;;;10.69;100.00;100121.09;5028407;28;20231;-62
2023/01/01 01:53:39;;;;;;;11.43;9.03;;;;;;;10.71;100.00;100124.44;5048131;28;20243;-62
2023/01/01 01:56:13;;;;;;;11.23;8.87;;;;;;;10.63;100.00;100137.69;5038695;28;20189;-61
2023/01/01 01:58:38;;;;;;;12.40;9.83;;;;;;;10.68;100.00;100135.72;5020924;28;20641;-61
2023/01/01 02:01:04;;;;;;;11.40;9.20;;;;;;;10.63;100.00;100132.53;5038193;28;20304;-62
2023/01/01 02:03:59;;;;;;;10.93;9.10;;;;;;;10.47;100.00;100137.72;5028927;28;20538;-61
2023/01/01 02:06:27;;;;;;;10.37;8.73;;;;;;;10.55;100.00;100145.00;4992389;28;20252;-61
2023/01/01 02:08:55;;;;;;;11.13;9.23;;;;;;;10.55;100.00;100142.44;5009657;28;20189;-62
2023/01/01 02:11:20;;;;;;;13.73;10.03;;;;;;;10.44;100.00;100149.00;4979908;28;20262;-63
2023/01/01 02:13:45;;;;;;;11.03;9.23;;;;;;;10.47;100.00;100161.69;4999013;28;20265;-62
2023/01/01 02:16:19;;;;;;;12.50;10.23;;;;;;;10.24;100.00;100154.31;4991351;28;20297;-62
2023/01/01 02:18:57;;;;;;;13.03;10.17;;;;;;;10.05;100.00;100160.41;4992734;28;20598;-61
2023/01/01 02:21:45;;;;;;;13.73;10.37;;;;;;;10.11;100.00;100154.97;4999372;28;20321;-62
2023/01/01 02:24:29;;;;;;;12.10;10.60;;;;;;;9.99;100.00;100158.16;5003317;28;20229;-64
2023/01/01 02:27:08;;;;;;;12.27;10.23;;;;;;;9.90;100.00;100159.47;5007672;28;20237;-61
2023/01/01 02:29:54;;;;;;;13.20;9.70;;;;;;;9.85;100.00;100164.00;4992904;28;20195;-61
2023/01/01 02:32:24;;;;;;;12.53;10.00;;;;;;;9.90;100.00;100169.72;4994940;28;20218;-61
2023/01/01 02:35:33;;;;;;;12.77;10.20;;;;;;;9.72;100.00;100171.47;4991095;28;20255;-61
2023/01/01 02:37:53;;;;;;;14.20;10.87;;;;;;;9.55;100.00;100177.47;5001765;28;20265;-61
2023/01/01 02:40:22;;;;;;;12.07;9.90;;;;;;;9.59;100.00;100175.56;4977248;28;20233;-61
2023/01/01 02:42:49;;;;;;;13.77;9.90;;;;;;;9.67;100.00;100186.28;5016270;28;20694;-61
2023/01/01 02:45:14;;;;;;;69.60;54.83;;;;;;;9.47;100.00;100179.56;5040650;28;20654;-61
2023/01/01 02:47:40;;;;;;;78.53;64.83;;;;;;;9.56;100.00;100188.56;5035258;28;20268;-61
2023/01/01 02:50:15;;;;;;;95.00;74.60;;;;;;;9.55;100.00;100185.16;5033333;28;20182;-61
2023/01/01 02:53:00;;;;;;;56.20;48.20;;;;;;;9.50;100.00;100187.97;5044914;28;20186;-62
2023/01/01 02:55:53;;;;;;;42.20;34.07;;;;;;;9.40;100.00;100191.03;5031065;28;20929;-61
2023/01/01 03:01:39;;;;;;;48.73;40.57;;;;;;;9.11;100.00;100183.81;5032193;28;20259;-61
2023/01/01 03:04:23;;;;;;;43.20;37.60;;;;;;;8.98;100.00;100188.69;5016388;28;20206;-61
2023/01/01 03:07:02;;;;;;;61.37;47.10;;;;;;;8.96;100.00;100171.72;5012824;28;20186;-61
2023/01/01 03:10:14;;;;;;;53.83;46.13;;;;;;;9.03;100.00;100180.78;5031603;28;20632;-61
2023/01/01 03:12:49;;;;;;;60.33;44.87;;;;;;;9.04;100.00;100183.28;5003494;28;20595;-62
2023/01/01 03:15:44;;;;;;;58.83;47.20;;;;;;;9.00;100.00;100183.50;5001503;28;20185;-61
2023/01/01 03:18:21;;;;;;;48.30;37.63;;;;;;;8.95;100.00;100190.56;5012993;28;20206;-61
2023/01/01 03:20:53;;;;;;;57.80;46.07;;;;;;;8.92;100.00;100189.00;5003492;28;20723;-61
2023/01/01 03:23:25;;;;;;;53.10;45.80;;;;;;;8.88;100.00;100187.44;5030488;28;20633;-61
2023/01/01 03:25:55;;;;;;;43.93;36.27;;;;;;;8.96;100.00;100192.25;5030553;28;20178;-67
2023/01/01 03:28:53;;;;;;;56.27;44.33;;;;;;;8.83;100.00;100191.97;5013450;28;20178;-62
2023/01/01 03:31:24;;;;;;;44.73;37.07;;;;;;;8.57;100.00;100196.56;5016010;28;20603;-61
2023/01/01 03:34:00;;;;;;;42.23;33.80;;;;;;;8.70;100.00;100189.13;5022806;28;20208;-67
2023/01/01 03:36:34;;;;;;;36.73;30.03;;;;;;;8.68;100.00;100191.78;5034328;28;20540;-61
2023/01/01 03:39:10;;;;;;;37.83;32.17;;;;;;;8.77;100.00;100195.66;5017813;28;20231;-61
2023/01/01 03:42:08;;;;;;;41.33;34.70;;;;;;;8.55;100.00;100195.78;5036889;28;20224;-62
2023/01/01 03:44:44;;;;;;;47.97;36.60;;;;;;;8.63;100.00;100206.50;5003350;28;20210;-61
2023/01/01 03:47:09;;;;;;;58.23;48.47;;;;;;;8.62;100.00;100201.47;5017527;28;20216;-61
2023/01/01 03:49:35;;;;;;;64.20;51.00;;;;;;;8.50;100.00;100200.28;5035351;28;20292;-60
2023/01/01 03:52:00;;;;;;;67.67;54.33;;;;;;;8.39;100.00;100203.28;5025779;28;20224;-62
2023/01/01 03:54:29;;;;;;;59.00;48.77;;;;;;;8.42;100.00;100205.69;5054121;28;20190;-61
2023/01/01 03:57:13;;;;;;;69.87;51.60;;;;;;;8.31;100.00;100205.34;5035734;28;20544;-61
2023/01/01 04:00:08;;;;;;;59.70;49.47;;;;;;;8.00;100.00;100206.66;5016400;28;20178;-61
2023/01/01 04:02:46;;;;;;;69.40;52.67;;;;;;;8.11;100.00;100208.75;4995481;28;20312;-61
2023/01/01 04:05:13;;;;;;;68.40;55.00;;;;;;;7.95;100.00;100201.75;5032967;28;20304;-61
2023/01/01 04:07:39;;;;;;;64.97;52.97;;;;;;;7.73;100.00;100200.06;5033567;28;20182;-64
2023/01/01 04:10:15;;;;;;;58.83;49.60;;;;;;;7.64;100.00;100200.44;5023535;28;20863;-61
2023/01/01 04:13:02;;;;;;;53.03;43.73;;;;;;;7.51;100.00;100202.66;5033090;28;20182;-62
2023/01/01 04:15:28;;;;;;;49.07;39.40;;;;;;;7.67;100.00;100213.09;5002036;28;20234;-60
2023/01/01 04:17:53;;;;;;;47.73;39.53;;;;;;;7.80;100.00;100212.59;5011929;28;20734;-60
2023/01/01 04:20:20;;;;;;;46.80;36.57;;;;;;;7.78;100.00;100211.81;4986155;28;20178;-61
2023/01/01 04:22:45;;;;;;;45.40;38.53;;;;;;;7.76;100.00;100219.59;5012440;28;20233;-61
2023/01/01 04:25:12;;;;;;;49.10;37.90;;;;;;;7.78;100.00;100216.94;5033108;28;20263;-61
2023/01/01 04:27:39;;;;;;;51.13;39.50;;;;;;;7.73;100.00;100217.97;5027944;28;20183;-61
2023/01/01 04:30:07;;;;;;;61.23;48.83;;;;;;;7.59;100.00;100217.69;4986203;28;20193;-61
2023/01/01 04:32:33;;;;;;;66.57;52.03;;;;;;;7.41;100.00;100214.97;4999009;28;20194;-61
2023/01/01 04:34:58;;;;;;;66.30;51.57;;;;;;;7.49;100.00;100217.25;5032473;28;20190;-61
2023/01/01 04:37:24;;;;;;;67.83;52.67;;;;;;;7.32;100.00;100220.47;5012931;28;20179;-60
2023/01/01 04:39:49;;;;;;;63.83;52.57;;;;;;;7.41;100.00;100219.28;5013453;28;20241;-61
2023/01/01 04:42:14;;;;;;;74.20;59.50;;;;;;;7.40;100.00;100215.88;5002382;28;20222;-60
2023/01/01 04:44:39;;;;;;;72.07;59.03;;;;;;;7.38;100.00;100210.00;5023771;28;20198;-61
2023/01/01 04:47:05;;;;;;;68.37;55.13;;;;;;;7.22;100.00;100214.06;5014166;28;20727;-61
2023/01/01 04:49:30;;;;;;;68.97;57.80;;;;;;;7.26;100.00;100208.75;5023305;28;20233;-61
2023/01/01 04:51:55;;;;;;;76.60;57.10;;;;;;;7.26;100.00;100218.97;5005375;28;20308;-60
2023/01/01 04:54:21;;;;;;;73.53;57.60;;;;;;;7.21;100.00;100213.22;5022706;28;20178;-60
2023/01/01 04:56:46;;;;;;;69.40;56.57;;;;;;;7.17;100.00;100213.38;5029288;28;20622;-62
2023/01/01 04:59:11;;;;;;;73.43;58.27;;;;;;;7.11;100.00;100222.97;4995424;28;20614;-61
2023/01/01 05:01:36;;;;;;;69.73;55.83;;;;;;;7.09;100.00;100216.22;4988015;28;20317;-61
2023/01/01 05:04:02;;;;;;;64.10;53.03;;;;;;;7.04;100.00;100218.16;5014191;28;20687;-62
2023/01/01 05:06:28;;;;;;;67.80;53.70;;;;;;;7.01;100.00;100229.31;5013809;28;20186;-61
2023/01/01 05:08:54;;;;;;;72.73;54.97;;;;;;;6.87;100.00;100221.31;5005405;28;20178;-60
2023/01/01 05:11:22;;;;;;;59.53;50.00;;;;;;;6.64;100.00;100225.56;4995681;28;20248;-60
2023/01/01 05:13:50;;;;;;;65.87;52.50;;;;;;;6.61;100.00;100228.22;5014708;28;20628;-61
2023/01/01 05:16:19;;;;;;;65.67;50.00;;;;;;;6.54;100.00;100230.16;5014128;28;20218;-62
2023/01/01 05:18:45;;;;;;;61.97;51.57;;;;;;;6.67;100.00;100232.28;5014624;28;20182;-61
2023/01/01 05:21:13;;;;;;;60.80;49.03;;;;;;;6.68;100.00;100234.78;5020640;28;20232;-60
2023/01/01 05:23:39;;;;;;;62.67;48.63;;;;;;;6.55;100.00;100241.22;5014375;28;20225;-60
2023/01/01 05:26:19;;;;;;;63.10;51.63;;;;;;;6.47;100.00;100238.94;5013687;28;20178;-61
2023/01/01 05:28:45;;;;;;;68.57;55.20;;;;;;;6.53;100.00;100241.28;5027198;28;20185;-61
2023/01/01 05:31:16;;;;;;;64.47;54.27;;;;;;;6.52;100.00;100249.81;5022663;28;20220;-62
2023/01/01 05:33:42;;;;;;;72.97;55.07;;;;;;;6.60;100.00;100252.97;5033486;28;20192;-62
2023/01/01 05:36:12;;;;;;;62.77;51.23;;;;;;;6.58;100.00;100247.06;5010807;28;20185;-61
2023/01/01 05:38:38;;;;;;;70.83;54.50;;;;;;;6.54;100.00;100248.06;5050793;28;20203;-60
2023/01/01 05:41:06;;;;;;;67.60;52.23;;;;;;;6.44;100.00;100250.09;5033648;28;20264;-60
2023/01/01 05:43:32;;;;;;;68.93;53.00;;;;;;;6.53;100.00;100243.00;5031873;28;20202;-60
2023/01/01 05:46:02;;;;;;;64.60;51.63;;;;;;;6.63;100.00;100249.47;5043286;28;20184;-61
2023/01/01 05:48:28;;;;;;;64.63;51.63;;;;;;;6.62;100.00;100240.97;5012664;28;20638;-60
2023/01/01 05:50:53;;;;;;;64.53;51.43;;;;;;;6.68;100.00;100242.44;5021501;28;20313;-61
2023/01/01 05:53:18;;;;;;;61.27;48.70;;;;;;;6.60;100.00;100245.28;5030617;28;20555;-61
2023/01/01 05:55:44;;;;;;;57.93;46.23;;;;;;;6.57;100.00;100237.75;5031833;28;20188;-61
2023/01/01 05:58:09;;;;;;;59.17;48.70;;;;;;;6.63;100.00;100236.69;5012969;28;20187;-60
2023/01/01 06:00:34;;;;;;;57.63;46.17;;;;;;;6.60;100.00;100250.41;5021202;28;20790;-61
2023/01/01 06:02:59;;;;;;;55.63;45.33;;;;;;;6.48;100.00;100248.28;5032656;28;20217;-60
2023/01/01 06:05:25;;;;;;;57.47;45.90;;;;;;;6.42;100.00;100261.28;5048459;28;20235;-61
2023/01/01 06:07:50;;;;;;;58.17;44.17;;;;;;;6.44;100.00;100274.84;5019317;28;20623;-66
2023/01/01 06:10:15;;;;;;;55.23;44.30;;;;;;;6.44;100.00;100273.09;5003889;28;20592;-60
2023/01/01 06:12:41;;;;;;;58.40;46.50;;;;;;;6.36;100.00;100280.19;5032773;28;20182;-62
2023/01/01 06:15:07;;;;;;;58.50;46.43;;;;;;;6.31;100.00;100276.97;5013688;28;20888;-61
2023/01/01 06:17:33;;;;;;;58.83;47.83;;;;;;;6.15;100.00;100279.19;5031389;28;20235;-61
2023/01/01 06:19:58;;;;;;;64.23;47.37;;;;;;;6.08;100.00;100272.66;5013571;28;20193;-61
2023/01/01 06:22:23;;;;;;;58.57;47.00;;;;;;;6.23;100.00;100284.06;5004728;28;20240;-61
2023/01/01 06:24:48;;;;;;;61.30;46.73;;;;;;;6.22;100.00;100284.94;5013428;28;20220;-60
2023/01/01 06:27:14;;;;;;;65.40;46.97;;;;;;;6.32;100.00;100286.31;5032039;28;20189;-60
2023/01/01 06:29:39;;;;;;;58.07;45.50;;;;;;;6.32;100.00;100290.59;5032891;28;20667;-61
2023/01/01 06:32:04;;;;;;;54.83;45.27;;;;;;;6.35;100.00;100305.78;5005867;28;20288;-60
2023/01/01 06:34:30;;;;;;;57.43;43.77;;;;;;;6.29;100.00;100294.91;5031889;28;20542;-61
2023/01/01 06:36:55;;;;;;;53.13;43.03;;;;;;;6.29;100.00;100300.00;5012685;28;20600;-61
2023/01/01 06:39:20;;;;;;;54.10;42.03;;;;;;;6.27;100.00;100300.94;5015184;28;20188;-60
2023/01/01 06:41:45;;;;;;;53.33;43.03;;;;;;;6.08;100.00;100311.78;5020427;28;20322;-61
2023/01/01 06:44:11;;;;;;;51.37;42.60;;;;;;;6.03;100.00;100307.69;5014608;28;20276;-60
2023/01/01 06:46:36;;;;;;;51.27;40.23;;;;;;;6.07;100.00;100317.75;5031762;28;20233;-61
2023/01/01 06:49:04;;;;;;;51.10;40.20;;;;;;;6.14;100.00;100310.75;5014312;28;20188;-61
2023/01/01 06:51:36;;;;;;;49.90;38.97;;;;;;;6.15;100.00;100309.84;5022069;28;20225;-60
2023/01/01 06:54:04;;;;;;;50.73;39.53;;;;;;;6.17;100.00;100318.31;5013361;28;20177;-61
2023/01/01 06:56:30;;;;;;;48.73;37.27;;;;;;;6.12;100.00;100321.00;5030299;28;20181;-60
2023/01/01 06:58:56;;;;;;;44.30;36.63;;;;;;;6.10;100.00;100324.50;5010246;28;20264;-60
2023/01/01 07:01:26;;;;;;;46.80;37.70;;;;;;;5.97;100.00;100329.13;5014768;28;20328;-61
2023/01/01 07:03:54;;;;;;;45.37;36.30;;;;;;;5.90;100.00;100325.91;5021838;28;20202;-60
2023/01/01 07:06:21;;;;;;;46.83;36.53;;;;;;;5.90;100.00;100310.59;5009853;28;20592;-61
2023/01/01 07:08:46;;;;;;;47.90;35.97;;;;;;;5.86;100.00;100311.59;5025329;28;20177;-61
2023/01/01 07:11:11;;;;;;;44.10;33.77;;;;;;;5.91;100.00;100311.44;5010709;28;20230;-61
2023/01/01 07:13:37;;;;;;;45.63;33.53;;;;;;;5.95;100.00;100313.00;5042498;28;20185;-61
2023/01/01 07:16:02;;;;;;;38.37;32.43;;;;;;;6.02;100.00;100313.72;5034749;28;20267;-61
2023/01/01 07:18:27;;;;;;;41.67;32.53;;;;;;;5.98;100.00;100323.16;5053704;28;20688;-60
2023/01/01 07:20:55;;;;;;;39.73;31.63;;;;;;;5.95;100.00;100330.88;5041906;28;20225;-60
2023/01/01 07:23:21;;;;;;;38.97;31.50;;;;;;;5.86;100.00;100343.97;5027513;28;20274;-60
2023/01/01 07:25:51;;;;;;;42.97;33.50;;;;;;;5.90;100.00;100348.06;5015699;28;20623;-61
2023/01/01 07:28:17;;;;;;;51.13;35.07;;;;;;;5.82;100.00;100358.53;5025184;28;20238;-61
2023/01/01 07:30:42;;;;;;;47.47;37.77;;;;;;;5.82;100.00;100367.00;5021486;28;20216;-61
2023/01/01 07:33:11;;;;;;;47.17;35.40;;;;;;;6.02;100.00;100362.22;5024970;28;20401;-60
2023/01/01 07:35:36;;;;;;;54.60;37.13;;;;;;;6.07;100.00;100365.47;5019562;28;20268;-62
2023/01/01 07:38:02;;;;;;;50.60;36.20;;;;;;;6.16;100.00;100366.88;5024624;28;20281;-62
2023/01/01 07:40:27;;;;;;;41.60;31.47;;;;;;;6.25;100.00;100380.22;5021182;28;20239;-61
2023/01/01 07:42:52;;;;;;;49.90;33.73;;;;;;;6.34;100.00;100384.19;5041978;28;20174;-61
2023/01/01 07:45:18;;;;;;;43.00;30.57;;;;;;;6.40;100.00;100378.00;5020166;28;20209;-60
2023/01/01 07:47:49;;;;;;;31.77;22.93;;;;;;;6.64;100.00;100378.94;5042689;28;20559;-61
2023/01/01 07:50:16;;;;;;;17.33;12.70;;;;;;;7.05;100.00;100386.06;5020852;28;20223;-60
2023/01/01 07:52:42;;;;;;;14.07;9.63;;;;;;;7.47;100.00;100380.28;4996639;28;20187;-61
2023/01/01 07:55:12;;;;;;;12.40;8.30;;;;;;;7.81;100.00;100380.75;5028601;28;20249;-60
2023/01/01 07:57:37;;;;;;;11.00;6.03;;;;;;;8.20;100.00;100362.13;5025323;28;20224;-60
2023/01/01 08:00:03;;;;;;;5.43;4.50;;;;;;;8.49;100.00;100371.22;5050550;28;20181;-62
2023/01/01 08:02:28;;;;;;;6.87;4.33;;;;;;;8.76;100.00;100365.84;5033792;28;20229;-61
2023/01/01 08:04:53;;;;;;;7.73;4.40;;;;;;;8.96;100.00;100369.28;5050321;28;20310;-61
2023/01/01 08:07:18;;;;;;;7.03;3.57;;;;;;;9.17;100.00;100368.31;5048590;28;20177;-61
2023/01/01 08:09:44;;;;;;;6.13;3.40;;;;;;;9.42;100.00;100351.81;5049443;28;20250;-61
2023/01/01 08:12:09;;;;;;;9.67;3.33;;;;;;;9.56;100.00;100361.44;5036661;28;20276;-61
2023/01/01 08:14:34;;;;;;;8.57;3.90;;;;;;;9.62;100.00;100350.88;5049858;28;20625;-62
2023/01/01 08:16:59;;;;;;;6.53;3.50;;;;;;;9.82;100.00;100351.69;5016967;28;20237;-62
2023/01/01 08:19:25;;;;;;;5.97;3.07;;;;;;;9.93;100.00;100357.16;5033345;28;20595;-61
2023/01/01 08:21:50;;;;;;;3.97;2.83;;;;;;;10.09;100.00;100356.44;5032610;28;20248;-65
2023/01/01 08:24:15;;;;;;;8.53;2.93;;;;;;;10.30;100.00;100357.13;5025889;28;20225;-61
2023/01/01 08:26:40;;;;;;;5.40;2.90;;;;;;;10.33;100.00;100360.38;5049132;28;20185;-66
2023/01/01 08:29:06;;;;;;;5.20;2.77;;;;;;;10.51;100.00;100365.53;5050096;28;20233;-67
2023/01/01 08:31:31;;;;;;;5.93;3.00;;;;;;;10.61;100.00;100359.00;5027961;28;20230;-63
2023/01/01 08:33:57;;;;;;;5.83;2.80;;;;;;;10.81;100.00;100364.88;5033505;28;20193;-62
2023/01/01 08:36:22;;;;;;;5.23;2.40;;;;;;;11.02;100.00;100369.84;5029239;28;20256;-63
2023/01/01 08:38:47;;;;;;;4.20;2.60;;;;;;;11.20;100.00;100380.91;5032640;28;20192;-62
2023/01/01 08:41:13;;;;;;;9.67;2.60;;;;;;;11.28;100.00;100374.44;5005321;28;20355;-61
2023/01/01 08:43:38;;;;;;;6.00;3.97;;;;;;;11.31;100.00;100378.59;5033079;28;20285;-62
2023/01/01 08:46:03;;;;;;;9.10;4.20;;;;;;;11.55;100.00;100383.38;5032408;28;20178;-61
2023/01/01 08:48:29;;;;;;;10.70;4.50;;;;;;;11.71;100.00;100386.75;5034659;28;20182;-62
2023/01/01 08:50:59;;;;;;;9.90;4.97;;;;;;;11.69;100.00;100396.31;5034060;28;20705;-62
2023/01/01 08:53:25;;;;;;;4.73;3.70;;;;;;;11.90;100.00;100396.88;5045881;28;20178;-62
2023/01/01 08:56:02;;;;;;;6.53;3.57;;;;;;;11.94;100.00;100395.81;5023150;28;20181;-62
2023/01/01 08:58:29;;;;;;;4.30;3.37;;;;;;;12.23;100.00;100402.84;5018493;28;20264;-62
2023/01/01 09:00:54;;;;;;;4.83;2.53;;;;;;;12.48;100.00;100404.88;5022324;28;20238;-61
2023/01/01 09:03:20;;;;;;;6.30;3.03;;;;;;;12.60;100.00;100403.31;5031881;28;20269;-62
2023/01/01 09:05:45;;;;;;;6.37;2.77;;;;;;;12.54;100.00;100414.84;5033031;28;20524;-61
2023/01/01 09:08:12;;;;;;;7.10;3.27;;;;;;;12.39;100.00;100418.28;5032949;28;20189;-62
2023/01/01 09:10:37;;;;;;;5.20;3.20;;;;;;;12.44;100.00;100421.44;5005344;28;20743;-62
2023/01/01 09:13:03;;;;;;;7.10;3.50;;;;;;;12.49;100.00;100422.00;5015565;28;20210;-62
2023/01/01 09:15:28;;;;;;;7.27;2.90;;;;;;;12.38;100.00;100429.53;5015557;28;20194;-62
2023/01/01 09:17:53;;;;;;;6.53;3.33;;;;;;;12.51;100.00;100432.25;5015260;28;20253;-61
2023/01/01 09:20:19;;;;;;;7.73;2.93;;;;;;;12.44;100.00;100439.50;5022352;28;20684;-62
2023/01/01 09:22:44;;;;;;;8.20;2.80;;;;;;;12.62;100.00;100435.03;5032061;28;20182;-62
2023/01/01 09:25:09;;;;;;;8.73;2.80;;;;;;;12.74;100.00;100434.31;5032294;28;20198;-62
2023/01/01 09:27:35;;;;;;;5.27;2.53;;;;;;;12.85;100.00;100438.00;5031937;28;20186;-62
2023/01/01 09:30:00;;;;;;;6.57;2.57;;;;;;;12.90;100.00;100438.59;5032744;28;20232;-62
2023/01/01 09:32:25;;;;;;;5.27;2.37;;;;;;;12.75;100.00;100438.56;5021398;28;20720;-62
2023/01/01 09:34:50;;;;;;;5.87;3.00;;;;;;;12.94;100.00;100424.56;5032804;28;20318;-62
2023/01/01 09:37:16;;;;;;;5.83;2.83;;;;;;;13.04;100.00;100427.44;5029818;28;20192;-62
2023/01/01 09:39:41;;;;;;;7.33;2.37;;;;;;;12.84;100.00;100439.78;5033362;28;20645;-64
2023/01/01 09:42:22;;;;;;;7.97;2.67;;;;;;;12.94;100.00;100436.63;5004918;28;20236;-63
2023/01/01 09:45:18;;;;;;;5.60;2.33;;;;;;;13.14;100.00;100445.81;5014535;28;20201;-62
2023/01/01 09:47:50;;;;;;;9.37;2.70;;;;;;;13.26;100.00;100444.22;5019978;28;20186;-62
2023/01/01 09:50:27;;;;;;;8.53;2.30;;;;;;;13.35;100.00;100448.84;5022174;28;20170;-62
2023/01/01 09:52:56;;;;;;;7.27;3.63;;;;;;;13.42;100.00;100429.50;5010970;28;20254;-62
2023/01/01 09:55:44;;;;;;;7.00;2.93;;;;;;;13.55;100.00;100425.22;5032887;28;20281;-62
2023/01/01 09:58:10;;;;;;;5.20;2.87;;;;;;;13.50;100.00;100432.41;5037826;28;20186;-61
2023/01/01 10:00:40;;;;;;;6.27;2.37;;;;;;;13.54;100.00;100438.22;5023133;28;20240;-61
2023/01/01 10:03:12;;;;;;;6.93;2.73;;;;;;;13.49;100.00;100440.28;5032987;28;20201;-61
2023/01/01 10:05:52;;;;;;;6.10;2.50;;;;;;;13.69;100.00;100433.88;5042247;28;20170;-62
2023/01/01 10:08:47;;;;;;;4.20;2.17;;;;;;;13.63;100.00;100435.09;5031435;28;20227;-61
2023/01/01 10:11:54;;;;;;;7.00;2.70;;;;;;;13.55;100.00;100434.72;5003826;28;20659;-61
2023/01/01 10:14:33;;;;;;;5.30;2.60;;;;;;;13.83;100.00;100431.25;5025148;28;20244;-62
2023/01/01 10:17:05;;;;;;;5.77;2.43;;;;;;;13.96;100.00;100436.47;5030082;28;20190;-61
2023/01/01 10:19:37;;;;;;;9.43;2.73;;;;;;;14.03;100.00;100437.75;5030252;28;20178;-61
2023/01/01 10:22:23;;;;;;;5.00;2.40;;;;;;;14.19;100.00;100434.19;5013914;28;20263;-62
2023/01/01 10:24:54;;;;;;;7.93;2.70;;;;;;;14.27;100.00;100431.09;5013665;28;20217;-62
2023/01/01 10:27:29;;;;;;;5.73;2.43;;;;;;;14.18;100.00;100437.69;5014018;28;20186;-62
2023/01/01 10:29:56;;;;;;;6.43;2.20;;;;;;;14.29;100.00;100432.66;5020970;28;20201;-61
2023/01/01 10:32:31;;;;;;;4.63;2.43;;;;;;;14.25;100.00;100430.38;5018445;28;20237;-61
2023/01/01 10:34:58;;;;;;;7.03;2.50;;;;;;;14.26;100.00;100429.44;5019957;28;20684;-62
2023/01/01 10:37:30;;;;;;;7.17;2.43;;;;;;;13.94;100.00;100433.19;5034492;28;20209;-62
2023/01/01 10:39:55;;;;;;;10.50;2.73;;;;;;;13.90;100.00;100423.94;5052095;28;20589;-62
2023/01/01 10:42:20;;;;;;;5.80;2.57;;;;;;;13.85;100.00;100421.66;5029872;28;20288;-62
2023/01/01 10:44:46;;;;;;;6.63;2.60;;;;;;;13.88;100.00;100425.81;5036941;28;20676;-62
2023/01/01 10:47:27;;;;;;;6.20;3.00;;;;;;;13.77;100.00;100421.31;5040994;28;20238;-62
2023/01/01 10:50:01;;;;;;;7.83;2.67;;;;;;;13.94;100.00;100421.97;5041057;28;20185;-61
2023/01/01 10:52:33;;;;;;;4.80;2.27;;;;;;;13.99;100.00;100438.03;5007916;28;20221;-62
2023/01/01 10:54:59;;;;;;;9.53;2.63;;;;;;;13.93;100.00;100439.28;5046975;28;20192;-61
2023/01/01 10:57:27;;;;;;;5.60;2.63;;;;;;;13.96;100.00;100433.88;5024981;28;20189;-62
2023/01/01 10:59:53;;;;;;;7.73;2.50;;;;;;;13.97;100.00;100432.97;5034016;28;20186;-62
2023/01/01 11:02:27;;;;;;;6.77;2.67;;;;;;;13.96;100.00;100431.31;5023873;28;20692;-61
2023/01/01 11:05:20;;;;;;;8.23;2.77;;;;;;;13.84;100.00;100432.06;5037466;28;20206;-62
2023/01/01 11:07:46;;;;;;;4.33;2.50;;;;;;;13.75;100.00;100430.09;5053021;28;20541;-61
2023/01/01 11:10:20;;;;;;;8.17;2.50;;;;;;;13.86;100.00;100422.47;5043755;28;20264;-61
2023/01/01 11:12:46;;;;;;;10.37;2.70;;;;;;;14.03;100.00;100419.66;5052189;28;20195;-61
2023/01/01 11:15:36;;;;;;;10.20;2.67;;;;;;;13.99;100.00;100415.59;5042306;28;20181;-62
2023/01/01 11:18:05;;;;;;;5.20;2.30;;;;;;;14.17;100.00;100403.22;5022898;28;20177;-61
2023/01/01 11:20:32;;;;;;;5.37;2.50;;;;;;;14.14;100.00;100394.84;5044489;28;20217;-61
2023/01/01 11:22:57;;;;;;;6.53;2.37;;;;;;;14.33;100.00;100392.72;5023189;28;20702;-62
2023/01/01 11:25:31;;;;;;;5.17;2.57;;;;;;;14.18;100.00;100381.59;5043226;28;20205;-63
2023/01/01 11:28:14;;;;;;;5.57;3.00;;;;;;;14.31;100.00;100379.06;5039333;28;20219;-62
2023/01/01 11:30:40;;;;;;;6.20;2.40;;;;;;;14.56;100.00;100374.81;5040837;28;20261;-62